createdAt,value
2023-05-04T00:02:08.212Z,7.93
2023-05-04T00:04:35.276Z,7.89
2023-05-04T00:07:02.404Z,7.91
2023-05-04T00:09:29.544Z,7.74
2023-05-04T00:11:56.710Z,7.63
2023-05-04T00:14:23.729Z,7.69
2023-05-04T00:16:50.977Z,7.64
2023-05-04T00:19:19.580Z,7.48
2023-05-04T00:21:46.743Z,7.33
2023-05-04T00:24:13.900Z,7.40
2023-05-04T00:26:42.290Z,7.64
2023-05-04T00:29:09.310Z,7.58
2023-05-04T00:31:36.612Z,7.65
2023-05-04T00:34:03.702Z,7.57
2023-05-04T00:36:30.704Z,7.58
2023-05-04T00:38:57.718Z,7.56
2023-05-04T00:41:24.970Z,7.32
2023-05-04T00:43:52.374Z,7.41
2023-05-04T00:46:19.961Z,7.38
2023-05-04T00:48:49.987Z,7.26
2023-05-04T00:51:19.358Z,7.25
2023-05-04T00:53:47.794Z,7.20
2023-05-04T00:56:16.642Z,7.16
2023-05-04T00:58:43.816Z,7.17
2023-05-04T01:01:11.020Z,7.17
2023-05-04T01:03:38.361Z,7.21
2023-05-04T01:06:23.399Z,7.33
2023-05-04T01:09:08.194Z,7.15
2023-05-04T01:11:44.228Z,7.13
2023-05-04T01:14:14.461Z,7.24
2023-05-04T01:16:41.667Z,7.24
2023-05-04T01:19:08.886Z,7.23
2023-05-04T01:21:36.937Z,7.35
2023-05-04T01:24:04.339Z,7.11
2023-05-04T01:26:39.363Z,7.06
2023-05-04T01:29:23.101Z,7.12
2023-05-04T01:31:52.122Z,6.99
2023-05-04T01:34:19.961Z,6.99
2023-05-04T01:36:48.110Z,7.05
2023-05-04T01:39:16.126Z,7.11
2023-05-04T01:41:43.333Z,7.12
2023-05-04T01:44:10.480Z,7.13
2023-05-04T01:46:37.795Z,7.09
2023-05-04T01:49:04.971Z,7.03
2023-05-04T01:51:31.975Z,7.10
2023-05-04T01:53:59.029Z,6.99
2023-05-04T01:56:26.197Z,7.04
2023-05-04T01:58:53.261Z,6.98
2023-05-04T02:01:20.521Z,7.02
2023-05-04T02:03:47.739Z,6.93
2023-05-04T02:06:14.930Z,6.78
2023-05-04T02:08:42.577Z,6.90
2023-05-04T02:11:09.675Z,6.83
2023-05-04T02:13:37.345Z,6.76
2023-05-04T02:16:04.928Z,6.74
2023-05-04T02:18:32.104Z,6.83
2023-05-04T02:20:59.120Z,6.72
2023-05-04T02:23:26.409Z,6.64
2023-05-04T02:25:55.334Z,6.53
2023-05-04T02:28:22.502Z,6.61
2023-05-04T02:30:49.563Z,6.70
2023-05-04T02:33:16.684Z,6.67
2023-05-04T02:35:43.750Z,6.50
2023-05-04T02:38:10.882Z,6.45
2023-05-04T02:40:37.914Z,6.56
2023-05-04T02:43:05.025Z,6.53
2023-05-04T02:45:32.197Z,6.62
2023-05-04T02:47:59.342Z,6.47
2023-05-04T02:50:26.480Z,6.52
2023-05-04T02:52:53.621Z,6.65
2023-05-04T02:55:20.965Z,6.61
2023-05-04T02:57:47.953Z,6.51
2023-05-04T03:00:15.566Z,6.61
2023-05-04T03:02:42.733Z,6.64
2023-05-04T03:05:09.905Z,6.63
2023-05-04T03:07:36.902Z,6.76
2023-05-04T03:10:04.560Z,6.89
2023-05-04T03:12:31.797Z,6.82
2023-05-04T03:15:01.350Z,6.78
2023-05-04T03:17:28.365Z,6.76
2023-05-04T03:19:55.369Z,6.91
2023-05-04T03:22:22.529Z,6.89
2023-05-04T03:24:49.537Z,7.05
2023-05-04T03:27:17.338Z,6.93
2023-05-04T03:29:44.447Z,6.98
2023-05-04T03:32:13.463Z,7.13
2023-05-04T03:34:40.541Z,7.13
2023-05-04T03:37:08.146Z,7.00
2023-05-04T03:39:35.217Z,6.98
2023-05-04T03:42:02.713Z,7.08
2023-05-04T03:44:30.256Z,7.15
2023-05-04T03:46:57.345Z,7.29
2023-05-04T03:49:24.409Z,7.18
2023-05-04T03:51:51.602Z,8.55
2023-05-04T03:54:18.736Z,10.68
2023-05-04T03:56:45.849Z,12.33
2023-05-04T03:59:12.913Z,13.43
2023-05-04T04:01:39.925Z,14.23
2023-05-04T04:04:07.077Z,14.97
2023-05-04T04:06:34.286Z,15.72
2023-05-04T04:09:01.382Z,16.30
2023-05-04T04:11:28.613Z,17.14
2023-05-04T04:13:56.173Z,18.58
2023-05-04T04:16:23.559Z,19.27
2023-05-04T04:18:50.956Z,19.61
2023-05-04T04:21:18.017Z,19.90
2023-05-04T04:23:45.144Z,21.33
2023-05-04T04:26:12.292Z,22.95
2023-05-04T04:28:39.382Z,23.96
2023-05-04T04:31:25.540Z,24.71
2023-05-04T04:34:03.129Z,24.95
2023-05-04T04:36:30.361Z,25.91
2023-05-04T04:38:57.416Z,26.79
2023-05-04T04:41:25.096Z,26.84
2023-05-04T04:43:52.199Z,27.81
2023-05-04T04:46:19.401Z,27.87
2023-05-04T04:48:47.248Z,28.57
2023-05-04T04:51:14.481Z,27.76
2023-05-04T04:53:41.597Z,29.04
2023-05-04T04:56:09.762Z,29.20
2023-05-04T04:58:36.945Z,29.97
2023-05-04T05:01:05.353Z,30.52
2023-05-04T05:03:32.688Z,30.50
2023-05-04T05:06:01.868Z,31.64
2023-05-04T05:08:28.974Z,31.43
2023-05-04T05:10:56.404Z,31.29
2023-05-04T05:13:23.445Z,32.16
2023-05-04T05:15:50.560Z,33.39
2023-05-04T05:18:17.679Z,33.64
2023-05-04T05:20:44.793Z,33.69
2023-05-04T05:23:11.820Z,34.93
2023-05-04T05:25:39.381Z,34.67
2023-05-04T05:28:07.224Z,34.40
2023-05-04T05:30:34.396Z,34.64
2023-05-04T05:33:02.274Z,34.57
2023-05-04T05:35:29.382Z,34.08
2023-05-04T05:37:56.433Z,34.67
2023-05-04T05:40:23.650Z,35.06
2023-05-04T05:42:50.663Z,35.08
2023-05-04T05:45:18.453Z,35.94
2023-05-04T05:47:45.590Z,36.25
2023-05-04T05:50:13.918Z,36.23
2023-05-04T05:52:41.078Z,36.46
2023-05-04T05:55:08.871Z,35.95
2023-05-04T05:57:35.979Z,34.70
2023-05-04T06:00:05.428Z,35.05
2023-05-04T06:02:32.818Z,36.13
2023-05-04T06:05:00.238Z,34.63
2023-05-04T06:07:27.366Z,35.50
2023-05-04T06:09:54.427Z,36.07
2023-05-04T06:12:21.490Z,36.22
2023-05-04T06:14:48.577Z,36.27
2023-05-04T06:17:15.749Z,36.42
2023-05-04T06:19:42.880Z,37.31
2023-05-04T06:22:09.987Z,37.16
2023-05-04T06:24:37.799Z,37.32
2023-05-04T06:27:04.868Z,37.38
2023-05-04T06:29:32.225Z,34.88
2023-05-04T06:31:59.577Z,36.37
2023-05-04T06:34:26.667Z,36.72
2023-05-04T06:36:53.757Z,36.26
2023-05-04T06:39:20.941Z,36.54
2023-05-04T06:41:47.969Z,38.04
2023-05-04T06:44:15.256Z,37.16
2023-05-04T06:46:42.287Z,38.79
2023-05-04T06:49:09.499Z,38.21
2023-05-04T06:51:37.761Z,36.80
2023-05-04T06:54:05.122Z,37.38
2023-05-04T06:56:32.597Z,39.00
2023-05-04T06:58:59.771Z,37.91
2023-05-04T07:01:26.955Z,38.30
2023-05-04T07:03:54.068Z,37.72
2023-05-04T07:06:21.288Z,36.25
2023-05-04T07:08:48.273Z,36.88
2023-05-04T07:11:15.420Z,35.56
2023-05-04T07:13:42.641Z,37.44
2023-05-04T07:16:09.927Z,36.37
2023-05-04T07:18:39.008Z,36.22
2023-05-04T07:21:26.793Z,35.47
2023-05-04T07:23:56.093Z,34.73
2023-05-04T07:26:23.603Z,34.95
2023-05-04T07:28:50.846Z,34.90
2023-05-04T07:31:18.074Z,35.00
2023-05-04T07:33:45.222Z,34.06
2023-05-04T07:36:12.418Z,31.94
2023-05-04T07:38:39.524Z,31.91
2023-05-04T07:41:07.349Z,30.83
2023-05-04T07:43:34.498Z,31.77
2023-05-04T07:46:01.701Z,32.51
2023-05-04T07:48:29.043Z,32.05
2023-05-04T07:50:56.146Z,30.09
2023-05-04T07:53:25.555Z,30.42
2023-05-04T07:55:57.560Z,29.16
2023-05-04T07:58:24.618Z,28.96
2023-05-04T08:00:52.025Z,28.63
2023-05-04T08:03:19.124Z,29.12
2023-05-04T08:05:46.375Z,29.44
2023-05-04T08:08:13.388Z,30.91
2023-05-04T08:10:40.889Z,29.08
2023-05-04T08:13:08.012Z,26.47
2023-05-04T08:15:35.136Z,27.00
2023-05-04T08:18:02.388Z,27.99
2023-05-04T08:20:29.575Z,28.74
2023-05-04T08:22:56.631Z,28.77
2023-05-04T08:25:23.681Z,27.52
2023-05-04T08:27:50.811Z,25.73
2023-05-04T08:30:18.368Z,24.59
2023-05-04T08:32:45.628Z,24.42
2023-05-04T08:35:13.473Z,25.37
2023-05-04T08:37:40.696Z,24.63
2023-05-04T08:40:08.707Z,23.43
2023-05-04T08:42:36.485Z,24.18
2023-05-04T08:45:04.311Z,24.14
2023-05-04T08:47:31.623Z,24.18
2023-05-04T08:49:58.819Z,24.25
2023-05-04T08:52:27.606Z,23.62
2023-05-04T08:54:57.054Z,23.62
2023-05-04T08:57:26.134Z,23.59
2023-05-04T08:59:54.950Z,24.88
2023-05-04T09:02:24.347Z,24.57
2023-05-04T09:04:52.826Z,24.87
2023-05-04T09:07:21.786Z,25.73
2023-05-04T09:09:51.699Z,25.77
2023-05-04T09:12:19.374Z,25.90
2023-05-04T09:14:46.767Z,24.34
2023-05-04T09:17:25.813Z,25.28
2023-05-04T09:20:03.790Z,24.54
2023-05-04T09:22:31.301Z,23.99
2023-05-04T09:25:13.133Z,23.45
2023-05-04T09:27:42.728Z,24.79
2023-05-04T09:30:12.687Z,24.49
2023-05-04T09:32:46.946Z,24.55
2023-05-04T09:35:29.297Z,24.51
2023-05-04T09:37:59.496Z,24.23
2023-05-04T09:40:42.246Z,23.45
2023-05-04T09:43:10.916Z,23.27
2023-05-04T09:45:44.711Z,24.29
2023-05-04T09:48:34.323Z,24.49
2023-05-04T09:51:07.787Z,24.75
2023-05-04T09:53:39.593Z,25.10
2023-05-04T09:56:20.535Z,25.50
2023-05-04T09:58:49.433Z,24.52
2023-05-04T10:01:17.423Z,24.03
2023-05-04T10:03:44.959Z,24.14
2023-05-04T10:06:12.750Z,24.84
2023-05-04T10:08:41.438Z,24.60
2023-05-04T10:11:08.676Z,24.67
2023-05-04T10:13:35.843Z,24.25
2023-05-04T10:16:21.504Z,24.76
2023-05-04T10:19:42.486Z,24.87
2023-05-04T10:22:48.191Z,24.27
2023-05-04T10:25:36.213Z,23.99
2023-05-04T10:28:18.375Z,24.72
2023-05-04T10:30:45.843Z,24.97
2023-05-04T10:33:13.390Z,25.24
2023-05-04T10:35:54.366Z,24.37
2023-05-04T10:38:33.426Z,24.22
2023-05-04T10:41:00.786Z,23.84
2023-05-04T10:43:32.620Z,23.80
2023-05-04T10:46:01.298Z,22.72
2023-05-04T10:48:37.513Z,22.35
2023-05-04T10:51:05.582Z,21.46
2023-05-04T10:53:33.203Z,22.18
2023-05-04T10:56:03.352Z,22.77
2023-05-04T10:58:30.819Z,22.19
2023-05-04T11:00:58.274Z,22.35
2023-05-04T11:03:25.561Z,22.04
2023-05-04T11:05:54.851Z,22.81
2023-05-04T11:08:24.753Z,23.13
2023-05-04T11:11:09.785Z,22.86
2023-05-04T11:13:46.179Z,23.52
2023-05-04T11:16:22.940Z,22.56
2023-05-04T11:18:50.511Z,22.27
2023-05-04T11:21:27.896Z,22.44
2023-05-04T11:24:04.183Z,22.12
2023-05-04T11:26:31.222Z,21.57
2023-05-04T11:28:58.633Z,21.25
2023-05-04T11:31:25.952Z,21.70
2023-05-04T11:33:55.175Z,21.16
2023-05-04T11:36:23.097Z,21.22
2023-05-04T11:38:51.101Z,20.83
2023-05-04T11:41:18.266Z,21.26
2023-05-04T11:43:46.743Z,21.23
2023-05-04T11:46:14.818Z,20.73
2023-05-04T11:48:42.374Z,20.61
2023-05-04T11:51:09.612Z,20.88
2023-05-04T11:53:41.343Z,20.69
2023-05-04T11:56:09.670Z,21.12
2023-05-04T11:58:36.985Z,20.84
2023-05-04T12:01:05.143Z,20.76
2023-05-04T12:06:05.018Z,19.98
2023-05-04T12:08:35.444Z,20.04
2023-05-04T12:11:16.775Z,19.99
2023-05-04T12:13:48.995Z,20.25
2023-05-04T12:16:19.159Z,20.48
2023-05-04T12:18:48.393Z,20.37
2023-05-04T12:21:21.669Z,20.57
2023-05-04T12:23:49.264Z,20.85
2023-05-04T12:26:18.980Z,20.88
2023-05-04T12:28:47.302Z,21.26
2023-05-04T12:31:14.459Z,21.03
2023-05-04T12:33:41.592Z,21.25
2023-05-04T12:36:09.227Z,21.31
2023-05-04T12:38:38.217Z,21.36
2023-05-04T12:41:08.127Z,20.69
2023-05-04T12:43:35.263Z,20.21
2023-05-04T12:46:02.451Z,20.16
2023-05-04T12:48:32.642Z,20.37
2023-05-04T12:51:01.633Z,20.23
2023-05-04T12:53:30.140Z,19.74
2023-05-04T12:55:57.701Z,19.84
2023-05-04T12:58:25.042Z,20.22
2023-05-04T13:00:52.105Z,20.10
2023-05-04T13:03:19.582Z,20.28
2023-05-04T13:05:48.573Z,20.39
2023-05-04T13:08:17.315Z,20.68
2023-05-04T13:10:46.265Z,20.53
2023-05-04T13:13:16.380Z,20.53
2023-05-04T13:15:44.401Z,20.29
2023-05-04T13:18:12.611Z,20.45
2023-05-04T13:20:40.560Z,20.24
2023-05-04T13:23:07.642Z,20.39
2023-05-04T13:25:34.669Z,20.27
2023-05-04T13:28:01.761Z,20.21
2023-05-04T13:30:29.159Z,20.09
2023-05-04T13:32:56.352Z,20.05
2023-05-04T13:35:23.990Z,19.99
2023-05-04T13:37:51.577Z,20.20
2023-05-04T13:40:18.895Z,20.36
2023-05-04T13:42:46.052Z,20.47
2023-05-04T13:45:13.218Z,20.44
2023-05-04T13:47:40.771Z,20.96
2023-05-04T13:50:08.836Z,20.68
2023-05-04T13:52:36.942Z,20.70
2023-05-04T13:55:04.772Z,20.87
2023-05-04T13:57:32.279Z,20.69
2023-05-04T14:00:07.141Z,20.32
2023-05-04T14:02:35.437Z,20.05
2023-05-04T14:05:04.230Z,20.10
2023-05-04T14:07:31.754Z,20.06
2023-05-04T14:09:59.831Z,20.15
2023-05-04T14:12:28.943Z,20.12
2023-05-04T14:14:57.355Z,20.24
2023-05-04T14:17:24.857Z,20.17
2023-05-04T14:19:51.883Z,20.25
2023-05-04T14:22:19.080Z,19.84
2023-05-04T14:24:46.300Z,19.76
2023-05-04T14:27:13.286Z,19.69
2023-05-04T14:29:40.461Z,20.01
2023-05-04T14:32:07.545Z,20.01
2023-05-04T14:34:34.755Z,20.04
2023-05-04T14:37:02.000Z,19.88
2023-05-04T14:39:29.080Z,20.04
2023-05-04T14:41:57.314Z,19.86
2023-05-04T14:44:26.276Z,19.77
2023-05-04T14:46:53.504Z,19.68
2023-05-04T14:49:35.950Z,20.02
2023-05-04T14:52:04.763Z,19.82
2023-05-04T14:54:31.991Z,19.65
2023-05-04T14:56:59.974Z,19.86
2023-05-04T14:59:27.117Z,19.88
2023-05-04T15:01:55.420Z,19.70
2023-05-04T15:04:22.892Z,19.59
2023-05-04T15:06:50.520Z,19.62
2023-05-04T15:09:17.743Z,20.04
2023-05-04T15:11:44.801Z,19.57
2023-05-04T15:14:11.848Z,19.43
2023-05-04T15:16:38.958Z,19.26
2023-05-04T15:19:07.057Z,19.29
2023-05-04T15:21:34.667Z,19.42
2023-05-04T15:24:02.083Z,19.71
2023-05-04T15:26:30.947Z,19.62
2023-05-04T15:28:58.595Z,19.67
2023-05-04T15:31:26.066Z,19.50
2023-05-04T15:33:54.250Z,19.48
2023-05-04T15:36:21.541Z,19.20
2023-05-04T15:38:48.585Z,19.09
2023-05-04T15:41:15.941Z,19.05
2023-05-04T15:43:43.040Z,19.13
2023-05-04T15:46:10.118Z,19.06
2023-05-04T15:48:37.301Z,19.13
2023-05-04T15:51:08.114Z,18.92
2023-05-04T15:53:35.120Z,18.98
2023-05-04T15:56:04.021Z,18.82
2023-05-04T15:58:32.766Z,18.88
2023-05-04T16:01:03.823Z,18.80
2023-05-04T16:03:32.337Z,18.76
2023-05-04T16:05:59.510Z,19.07
2023-05-04T16:08:26.939Z,18.84
2023-05-04T16:10:54.294Z,18.92
2023-05-04T16:13:21.396Z,19.16
2023-05-04T16:15:52.332Z,18.91
2023-05-04T16:18:19.990Z,18.82
2023-05-04T16:20:48.622Z,18.74
2023-05-04T16:23:17.659Z,18.71
2023-05-04T16:25:44.977Z,18.81
2023-05-04T16:28:12.291Z,18.84
2023-05-04T16:30:39.559Z,18.71
2023-05-04T16:33:06.598Z,18.68
2023-05-04T16:35:34.735Z,18.74
2023-05-04T16:38:01.759Z,18.59
2023-05-04T16:40:29.055Z,18.56
2023-05-04T16:42:56.176Z,18.49
2023-05-04T16:45:25.570Z,18.65
2023-05-04T16:47:52.868Z,18.36
2023-05-04T16:50:19.934Z,18.23
2023-05-04T16:52:47.032Z,18.06
2023-05-04T16:55:14.131Z,18.10
2023-05-04T16:57:41.574Z,18.01
2023-05-04T17:00:10.649Z,17.79
2023-05-04T17:02:37.943Z,17.81
2023-05-04T17:05:06.895Z,17.73
2023-05-04T17:07:34.242Z,17.50
2023-05-04T17:10:01.540Z,17.34
2023-05-04T17:12:29.004Z,17.20
2023-05-04T17:14:56.331Z,17.18
2023-05-04T17:17:23.439Z,16.95
2023-05-04T17:19:50.532Z,16.89
2023-05-04T17:22:17.578Z,16.86
2023-05-04T17:24:45.741Z,16.89
2023-05-04T17:27:13.487Z,16.80
2023-05-04T17:29:41.330Z,16.68
2023-05-04T17:32:08.854Z,16.82
2023-05-04T17:34:36.644Z,16.76
2023-05-04T17:37:05.216Z,16.57
2023-05-04T17:39:32.390Z,16.57
2023-05-04T17:41:59.686Z,16.34
2023-05-04T17:44:28.845Z,16.32
2023-05-04T17:46:56.454Z,16.32
2023-05-04T17:49:23.569Z,16.32
2023-05-04T17:51:50.736Z,16.31
2023-05-04T17:54:17.916Z,16.36
2023-05-04T17:56:45.021Z,16.38
2023-05-04T17:59:12.189Z,16.19
2023-05-04T18:01:39.305Z,16.11
2023-05-04T18:04:06.366Z,16.07
2023-05-04T18:06:34.178Z,16.03
2023-05-04T18:09:01.436Z,16.05
2023-05-04T18:11:28.544Z,15.94
2023-05-04T18:13:56.688Z,15.80
2023-05-04T18:16:25.056Z,15.87
2023-05-04T18:18:52.614Z,15.62
2023-05-04T18:21:19.811Z,15.57
2023-05-04T18:23:47.002Z,15.62
2023-05-04T18:26:22.644Z,15.51
2023-05-04T18:28:50.402Z,15.34
2023-05-04T18:31:18.988Z,15.29
2023-05-04T18:33:46.195Z,15.29
2023-05-04T18:36:13.416Z,15.15
2023-05-04T18:38:41.025Z,15.14
2023-05-04T18:41:08.310Z,14.99
2023-05-04T18:43:35.314Z,14.91
2023-05-04T18:46:09.062Z,14.86
2023-05-04T18:48:36.170Z,15.02
2023-05-04T18:51:03.650Z,14.82
2023-05-04T18:53:30.925Z,14.93
2023-05-04T18:56:06.013Z,14.79
2023-05-04T18:58:33.516Z,14.67
2023-05-04T19:01:00.709Z,14.71
2023-05-04T19:03:28.353Z,14.69
2023-05-04T19:05:55.912Z,14.68
2023-05-04T19:08:23.229Z,14.67
2023-05-04T19:10:50.640Z,14.54
2023-05-04T19:13:17.859Z,14.43
2023-05-04T19:15:45.210Z,14.45
2023-05-04T19:18:12.393Z,14.35
2023-05-04T19:20:39.961Z,14.28
2023-05-04T19:23:07.103Z,14.27
2023-05-04T19:25:35.372Z,14.20
2023-05-04T19:28:08.677Z,14.16
2023-05-04T19:30:39.972Z,14.22
2023-05-04T19:33:08.649Z,14.22
2023-05-04T19:35:36.510Z,14.03
2023-05-04T19:38:06.486Z,14.12
2023-05-04T19:40:34.824Z,14.22
2023-05-04T19:43:01.912Z,14.25
2023-05-04T19:45:29.093Z,14.12
2023-05-04T19:47:56.570Z,14.17
2023-05-04T19:50:23.890Z,14.17
2023-05-04T19:52:51.822Z,13.98
2023-05-04T19:55:19.090Z,13.95
2023-05-04T19:57:47.768Z,13.92
2023-05-04T20:00:17.186Z,14.09
2023-05-04T20:02:44.431Z,13.98
2023-05-04T20:05:11.811Z,13.95
2023-05-04T20:07:39.286Z,13.93
2023-05-04T20:10:07.046Z,13.88
2023-05-04T20:12:49.855Z,13.76
2023-05-04T20:15:17.059Z,13.86
2023-05-04T20:17:44.113Z,13.76
2023-05-04T20:20:12.052Z,13.51
2023-05-04T20:22:39.191Z,13.51
2023-05-04T20:25:06.548Z,13.53
2023-05-04T20:27:33.577Z,13.59
2023-05-04T20:30:00.629Z,13.42
2023-05-04T20:32:28.202Z,13.49
2023-05-04T20:34:56.096Z,13.37
2023-05-04T20:37:23.950Z,13.36
2023-05-04T20:39:54.000Z,13.38
2023-05-04T20:42:21.622Z,13.23
2023-05-04T20:44:48.783Z,13.25
2023-05-04T20:47:15.816Z,13.38
2023-05-04T20:49:42.911Z,13.39
2023-05-04T20:52:10.258Z,13.53
2023-05-04T20:54:37.347Z,13.55
2023-05-04T20:57:04.466Z,13.33
2023-05-04T20:59:31.716Z,13.37
2023-05-04T21:01:58.867Z,13.44
2023-05-04T21:04:26.061Z,13.43
2023-05-04T21:06:53.227Z,13.44
2023-05-04T21:09:21.705Z,13.39
2023-05-04T21:11:48.733Z,13.22
2023-05-04T21:14:16.572Z,13.12
2023-05-04T21:16:43.724Z,13.26
2023-05-04T21:19:10.931Z,13.16
2023-05-04T21:21:40.937Z,13.11
2023-05-04T21:24:14.194Z,13.00
2023-05-04T21:26:41.783Z,13.10
2023-05-04T21:29:15.445Z,13.07
2023-05-04T21:31:42.742Z,13.21
2023-05-04T21:34:10.415Z,13.18
2023-05-04T21:36:39.081Z,13.09
2023-05-04T21:39:06.366Z,13.08
2023-05-04T21:41:33.528Z,13.05
2023-05-04T21:44:00.679Z,13.07
2023-05-04T21:46:27.873Z,13.05
2023-05-04T21:48:54.990Z,13.09
2023-05-04T21:51:22.117Z,13.06
2023-05-04T21:53:49.141Z,13.00
2023-05-04T21:56:16.183Z,12.96
2023-05-04T21:58:43.422Z,13.08
2023-05-04T22:01:17.213Z,13.02
2023-05-04T22:03:44.898Z,13.06
2023-05-04T22:06:12.234Z,13.02
2023-05-04T22:08:39.720Z,13.07
2023-05-04T22:11:07.523Z,13.06
2023-05-04T22:13:34.606Z,13.10
2023-05-04T22:16:01.621Z,13.11
2023-05-04T22:18:28.678Z,12.98
2023-05-04T22:20:55.780Z,13.08
2023-05-04T22:23:22.843Z,13.18
2023-05-04T22:25:49.921Z,13.14
2023-05-04T22:28:17.234Z,13.13
2023-05-04T22:30:44.395Z,13.05
2023-05-04T22:33:11.657Z,13.07
2023-05-04T22:35:38.723Z,13.18
2023-05-04T22:38:05.831Z,12.99
2023-05-04T22:40:32.942Z,12.94
2023-05-04T22:42:59.965Z,12.98
2023-05-04T22:45:27.156Z,12.91
2023-05-04T22:47:54.370Z,12.83
2023-05-04T22:50:21.423Z,12.81
2023-05-04T22:52:48.521Z,12.97
2023-05-04T22:55:15.713Z,12.92
2023-05-04T22:57:42.820Z,12.96
2023-05-04T23:00:11.010Z,12.93
2023-05-04T23:02:38.440Z,12.76
2023-05-04T23:05:06.571Z,12.71
2023-05-04T23:07:33.940Z,12.82
2023-05-04T23:10:01.106Z,12.81
2023-05-04T23:12:28.488Z,12.80
2023-05-04T23:14:55.767Z,12.81
2023-05-04T23:17:22.903Z,12.75
2023-05-04T23:19:50.399Z,12.82
2023-05-04T23:22:17.730Z,12.75
2023-05-04T23:24:44.781Z,12.72
2023-05-04T23:27:12.554Z,12.76
2023-05-04T23:29:39.816Z,12.71
2023-05-04T23:32:07.063Z,12.68
2023-05-04T23:34:34.288Z,12.55
2023-05-04T23:37:01.624Z,12.52
2023-05-04T23:39:28.889Z,12.53
2023-05-04T23:41:56.089Z,12.75
2023-05-04T23:44:23.880Z,12.58
2023-05-04T23:46:51.173Z,12.63
2023-05-04T23:49:18.254Z,12.48
2023-05-04T23:51:45.243Z,12.37
2023-05-04T23:54:12.230Z,12.44
2023-05-04T23:56:39.374Z,12.42
2023-05-04T23:59:06.660Z,12.46
